Fidelity
UTM 11U Easting = 45 1062, Northing = 56 76123     Elevation = 1905 m
Note to Users: This site contains raw data and is presented "as is" and in real time. Although reasonable care is exercised in providing this information, inaccuracies or omissions may occur due to the properties of weather and data collection systems. The Avalanche Control Section, responsible for its collection, disclaims all responsibility for the accuracy of the information.
Date Max Temp (deg C) Min Temp (deg C) Rel Hum (%) 1 Hr Precip (mm) 1 Hr Snow (cm) HN24 (cm) ILWR Max ILWR Min ILWR Ave ISWR Max ISWR Min ISWR Ave
2020-11-27 11:00 -3 -3 91 0.2 0 0 300 22 301 301 40 35
2020-11-27 12:00 -3 -3 90 0.1 0 0 301 34 301 303 55 34
2020-11-27 13:00 -2 -3 88 0.1 0 0 302 37 302 303 52 44
2020-11-27 14:00 -2 -3 88 0.0 0 0 302 22 303 304 47 41
2020-11-27 15:00 -2 -3 87 0.0 0 0 301 6 303 303 25 27
2020-11-27 16:00 -3 -3 88 0.0 0 0 300 0 302 302 9 10
2020-11-27 17:00 -3 -3 86 0.0 0 0 302 0 301 303 0 1
2020-11-27 18:00 -3 -3 86 0.0 0 0 301 0 302 303 0 0
2020-11-27 19:00 -3 -3 87 0.0 0 0 298 0 301 301 0 0
2020-11-27 20:00 -3 -4 88 0.0 0 0 296 0 299 299 0 0
2020-11-27 21:00 -4 -4 90 0.0 0 0 296 0 297 297 0 0
2020-11-27 22:00 -4 -4 91 1.2 8 1 295 0 296 296 0 0
2020-11-27 23:00 -4 -4 92 1.6 2 3 295 0 295 296 0 0
2020-11-28 00:00 -4 -4 92 1.6 2 4 295 0 296 296 0 0
2020-11-28 01:00 -4 -5 92 1.5 1 5 295 0 295 296 0 0
2020-11-28 02:00 -4 -4 92 1.7 1 6 295 0 295 297 0 0
2020-11-28 03:00 -4 -4 91 2.2 2 8 296 0 297 298 0 0
2020-11-28 04:00 -4 -5 91 1.0 0 9 294 0 297 297 0 0
2020-11-28 05:00 -4 -5 90 1.1 0 9 293 0 294 294 0 0
2020-11-28 06:00 -5 -5 88 1.1 2 11 292 0 293 293 0 0
2020-11-28 07:00 -5 -5 88 0.3 0 10 291 0 292 292 0 0
2020-11-28 08:00 -5 -5 88 0.1 0 10 291 0 292 292 14 0
2020-11-28 09:00 -5 -6 88 0.0 0 10 290 7 291 294 243 8